createdAt,value
2018-05-02T00:00:35.217Z,1.80
2018-05-02T00:01:36.573Z,1.83
2018-05-02T00:02:38.705Z,1.90
2018-05-02T00:03:40.082Z,2.03
2018-05-02T00:04:42.933Z,2.07
2018-05-02T00:05:44.316Z,1.70
2018-05-02T00:06:46.445Z,1.90
2018-05-02T00:07:47.848Z,2.23
2018-05-02T00:08:49.212Z,2.30
2018-05-02T00:09:50.569Z,2.33
2018-05-02T00:10:51.969Z,1.83
2018-05-02T00:11:53.321Z,2.10
2018-05-02T00:12:55.113Z,2.40
2018-05-02T00:13:57.245Z,2.83
2018-05-02T00:14:58.609Z,2.40
2018-05-02T00:16:00.737Z,2.03
2018-05-02T00:17:02.098Z,2.13
2018-05-02T00:18:05.036Z,2.17
2018-05-02T00:19:06.378Z,2.00
2018-05-02T00:20:07.783Z,1.60
2018-05-02T00:21:09.149Z,1.70
2018-05-02T00:22:10.519Z,1.90
2018-05-02T00:23:11.914Z,2.00
2018-05-02T00:24:13.289Z,2.07
2018-05-02T00:25:14.659Z,2.17
2018-05-02T00:26:16.765Z,2.67
2018-05-02T00:27:18.117Z,2.63
2018-05-02T00:28:19.513Z,2.30
2018-05-02T00:29:20.876Z,2.63
2018-05-02T00:30:22.251Z,2.50
2018-05-02T00:31:23.631Z,2.27
2018-05-02T00:32:24.997Z,2.30
2018-05-02T00:33:26.413Z,2.57
2018-05-02T00:34:27.770Z,2.20
2018-05-02T00:35:29.125Z,2.20
2018-05-02T00:36:31.238Z,2.70
2018-05-02T00:37:32.625Z,2.30
2018-05-02T00:38:34.295Z,2.70
2018-05-02T00:39:36.421Z,2.00
2018-05-02T00:40:37.811Z,2.10
2018-05-02T00:41:39.229Z,2.17
2018-05-02T00:42:41.344Z,2.17
2018-05-02T00:43:42.727Z,2.10
2018-05-02T00:44:44.828Z,2.10
2018-05-02T00:45:46.210Z,2.40
2018-05-02T00:46:47.594Z,2.57
2018-05-02T00:47:49.710Z,2.20
2018-05-02T00:49:10.818Z,2.37
2018-05-02T00:50:13.300Z,2.30
2018-05-02T00:51:14.673Z,2.20
2018-05-02T00:52:16.042Z,1.93
2018-05-02T00:53:17.404Z,2.30
2018-05-02T00:54:20.573Z,1.80
2018-05-02T00:55:22.696Z,2.10
2018-05-02T00:56:24.085Z,2.00
2018-05-02T00:57:25.445Z,1.93
2018-05-02T00:58:26.844Z,2.10
2018-05-02T00:59:30.236Z,2.20
2018-05-02T01:00:32.364Z,2.00
2018-05-02T01:01:33.751Z,2.07
2018-05-02T01:02:35.119Z,1.97
2018-05-02T01:03:36.487Z,2.17
2018-05-02T01:04:37.880Z,2.10
2018-05-02T01:05:39.259Z,2.20
2018-05-02T01:06:40.640Z,2.30
2018-05-02T01:07:42.043Z,2.10
2018-05-02T01:08:43.438Z,2.27
2018-05-02T01:09:45.081Z,2.23
2018-05-02T01:10:46.455Z,2.20
2018-05-02T01:11:47.832Z,1.90
2018-05-02T01:12:49.967Z,2.13
2018-05-02T01:13:51.338Z,2.10
2018-05-02T01:14:52.735Z,2.20
2018-05-02T01:15:54.138Z,2.00
2018-05-02T01:16:55.495Z,1.90
2018-05-02T01:17:56.873Z,2.30
2018-05-02T01:18:59.706Z,2.00
2018-05-02T01:20:01.090Z,2.07
2018-05-02T01:21:03.249Z,2.20
2018-05-02T01:22:05.351Z,2.10
2018-05-02T01:23:06.713Z,2.23
2018-05-02T01:24:08.106Z,2.30
2018-05-02T01:25:09.745Z,2.40
2018-05-02T01:26:11.108Z,2.20
2018-05-02T01:27:12.479Z,2.17
2018-05-02T01:28:15.554Z,2.30
2018-05-02T01:29:16.923Z,2.43
2018-05-02T01:30:19.807Z,2.20
2018-05-02T01:31:21.182Z,2.30
2018-05-02T01:32:22.535Z,2.70
2018-05-02T01:33:25.411Z,2.23
2018-05-02T01:34:26.807Z,2.40
2018-05-02T01:35:28.442Z,2.30
2018-05-02T01:36:36.208Z,2.40
2018-05-02T01:37:37.569Z,2.33
2018-05-02T01:38:39.694Z,2.47
2018-05-02T01:39:41.074Z,2.30
2018-05-02T01:40:42.483Z,2.20
2018-05-02T01:41:44.633Z,2.07
2018-05-02T01:42:46.022Z,2.33
2018-05-02T01:43:49.121Z,2.20
2018-05-02T01:44:50.489Z,2.37
2018-05-02T01:45:52.158Z,2.40
2018-05-02T01:46:55.249Z,2.50
2018-05-02T01:47:56.617Z,2.70
2018-05-02T01:49:16.657Z,2.30
2018-05-02T01:50:19.737Z,2.80
2018-05-02T01:51:21.137Z,2.50
2018-05-02T01:52:22.509Z,2.53
2018-05-02T01:53:24.605Z,2.20
2018-05-02T01:54:26.725Z,2.20
2018-05-02T01:55:28.077Z,2.30
2018-05-02T01:56:29.475Z,2.60
2018-05-02T01:57:31.585Z,2.50
2018-05-02T01:58:32.989Z,2.33
2018-05-02T01:59:34.383Z,2.13
2018-05-02T02:00:35.807Z,2.47
2018-05-02T02:01:37.213Z,3.00
2018-05-02T02:02:40.300Z,3.00
2018-05-02T02:03:41.658Z,3.37
2018-05-02T02:04:43.034Z,2.53
2018-05-02T02:05:44.429Z,2.80
2018-05-02T02:06:46.554Z,2.50
2018-05-02T02:07:48.661Z,2.50
2018-05-02T02:08:50.029Z,2.60
2018-05-02T02:09:51.401Z,2.80
2018-05-02T02:10:52.773Z,2.30
2018-05-02T02:11:54.157Z,2.37
2018-05-02T02:12:55.513Z,2.33
2018-05-02T02:13:56.928Z,1.90
2018-05-02T02:14:58.321Z,1.80
2018-05-02T02:15:59.701Z,2.13
2018-05-02T02:17:01.090Z,1.80
2018-05-02T02:18:02.524Z,1.93
2018-05-02T02:19:04.633Z,2.00
2018-05-02T02:20:06.004Z,2.27
2018-05-02T02:21:08.106Z,2.00
2018-05-02T02:22:09.714Z,2.00
2018-05-02T02:23:11.109Z,1.77
2018-05-02T02:24:12.483Z,1.90
2018-05-02T02:25:14.597Z,2.00
2018-05-02T02:26:15.996Z,1.90
2018-05-02T02:27:17.609Z,2.20
2018-05-02T02:28:19.738Z,2.13
2018-05-02T02:29:21.132Z,2.20
2018-05-02T02:30:22.514Z,2.17
2018-05-02T02:31:25.403Z,2.20
2018-05-02T02:32:27.057Z,2.43
2018-05-02T02:33:28.416Z,2.07
2018-05-02T02:34:30.523Z,2.10
2018-05-02T02:35:31.895Z,2.40
2018-05-02T02:36:34.770Z,2.17
2018-05-02T02:37:37.266Z,2.20
2018-05-02T02:38:38.669Z,2.13
2018-05-02T02:39:40.029Z,1.97
2018-05-02T02:40:42.138Z,2.13
2018-05-02T02:41:43.554Z,1.90
2018-05-02T02:42:44.947Z,2.00
2018-05-02T02:43:47.793Z,2.10
2018-05-02T02:44:49.158Z,2.10
2018-05-02T02:45:51.310Z,1.90
2018-05-02T02:46:53.794Z,2.27
2018-05-02T02:47:56.898Z,2.10
2018-05-02T02:48:58.266Z,1.90
2018-05-02T02:49:59.642Z,2.10
2018-05-02T02:51:01.802Z,2.00
2018-05-02T02:52:04.674Z,2.20
2018-05-02T02:53:06.802Z,2.20
2018-05-02T02:54:08.189Z,2.00
2018-05-02T02:55:09.637Z,2.23
2018-05-02T02:56:11.026Z,1.93
2018-05-02T02:57:37.104Z,2.30
2018-05-02T02:58:38.510Z,2.50
2018-05-02T02:59:40.619Z,2.40
2018-05-02T03:00:42.026Z,2.10
2018-05-02T03:01:43.394Z,2.37
2018-05-02T03:02:44.759Z,2.30
2018-05-02T03:03:46.919Z,2.33
2018-05-02T03:04:48.282Z,2.27
2018-05-02T03:05:50.413Z,2.50
2018-05-02T03:06:51.840Z,2.20
2018-05-02T03:07:54.754Z,2.50
2018-05-02T03:08:56.904Z,2.50
2018-05-02T03:09:59.820Z,2.50
2018-05-02T03:11:01.202Z,2.30
2018-05-02T03:12:02.585Z,2.30
2018-05-02T03:13:04.125Z,2.37
2018-05-02T03:14:06.384Z,2.57
2018-05-02T03:15:07.778Z,2.57
2018-05-02T03:16:09.171Z,2.40
2018-05-02T03:17:10.541Z,2.50
2018-05-02T03:18:11.930Z,2.40
2018-05-02T03:19:13.313Z,2.43
2018-05-02T03:20:14.685Z,2.50
2018-05-02T03:21:16.795Z,2.70
2018-05-02T03:22:18.189Z,2.30
2018-05-02T03:23:21.290Z,2.60
2018-05-02T03:24:22.678Z,2.40
2018-05-02T03:25:24.170Z,2.30
2018-05-02T03:26:25.537Z,2.50
2018-05-02T03:27:26.901Z,2.43
2018-05-02T03:28:28.265Z,2.47
2018-05-02T03:29:29.903Z,2.40
2018-05-02T03:30:32.027Z,2.27
2018-05-02T03:31:33.413Z,2.50
2018-05-02T03:32:34.785Z,2.27
2018-05-02T03:33:36.391Z,2.23
2018-05-02T03:34:37.789Z,2.20
2018-05-02T03:35:39.149Z,2.80
2018-05-02T03:36:41.256Z,2.70
2018-05-02T03:37:42.635Z,2.70
2018-05-02T03:38:44.024Z,2.73
2018-05-02T03:39:45.737Z,2.97
2018-05-02T03:40:47.850Z,2.90
2018-05-02T03:41:49.242Z,2.90
2018-05-02T03:42:51.362Z,2.93
2018-05-02T03:43:52.745Z,3.07
2018-05-02T03:44:54.866Z,2.80
2018-05-02T03:45:56.253Z,2.67
2018-05-02T03:46:57.637Z,3.20
2018-05-02T03:47:59.021Z,3.10
2018-05-02T03:49:00.405Z,2.70
2018-05-02T03:50:02.094Z,3.20
2018-05-02T03:51:03.528Z,2.87
2018-05-02T03:52:05.646Z,3.03
2018-05-02T03:53:07.031Z,2.90
2018-05-02T03:54:08.425Z,2.80
2018-05-02T03:55:09.813Z,2.90
2018-05-02T03:56:11.189Z,2.87
2018-05-02T03:57:12.554Z,2.20
2018-05-02T03:58:13.938Z,2.40
2018-05-02T03:59:15.342Z,2.67
2018-05-02T04:00:35.472Z,2.80
2018-05-02T04:04:24.498Z,2.80
2018-05-02T04:05:45.233Z,2.77
2018-05-02T04:06:54.340Z,2.80
2018-05-02T04:07:55.709Z,2.30
2018-05-02T04:08:57.125Z,2.30
2018-05-02T04:09:58.509Z,2.23
2018-05-02T04:10:59.917Z,2.50
2018-05-02T04:12:02.054Z,2.37
2018-05-02T04:13:03.515Z,2.30
2018-05-02T04:14:04.905Z,2.00
2018-05-02T04:15:07.010Z,2.70
2018-05-02T04:16:08.421Z,2.67
2018-05-02T04:17:09.797Z,2.60
2018-05-02T04:18:12.285Z,2.80
2018-05-02T04:19:13.654Z,2.90
2018-05-02T04:20:15.018Z,2.83
2018-05-02T04:21:16.394Z,2.23
2018-05-02T04:22:18.501Z,2.67
2018-05-02T04:23:19.914Z,2.23
2018-05-02T04:24:22.026Z,2.40
2018-05-02T04:25:24.509Z,2.27
2018-05-02T04:26:25.882Z,1.90
2018-05-02T04:27:27.993Z,2.10
2018-05-02T04:28:29.365Z,2.10
2018-05-02T04:29:31.468Z,2.10
2018-05-02T04:30:32.927Z,2.00
2018-05-02T04:31:34.314Z,2.17
2018-05-02T04:32:36.425Z,2.00
2018-05-02T04:33:37.796Z,2.10
2018-05-02T04:34:39.953Z,2.07
2018-05-02T04:35:42.074Z,1.87
2018-05-02T04:36:43.505Z,2.00
2018-05-02T04:37:44.907Z,2.30
2018-05-02T04:38:46.286Z,2.40
2018-05-02T04:39:47.723Z,2.43
2018-05-02T04:40:49.101Z,2.33
2018-05-02T04:41:50.501Z,2.03
2018-05-02T04:42:51.885Z,2.33
2018-05-02T04:43:54.733Z,2.00
2018-05-02T04:44:56.128Z,2.20
2018-05-02T04:45:57.498Z,2.50
2018-05-02T04:46:58.890Z,2.27
2018-05-02T04:48:01.002Z,2.33
2018-05-02T04:49:02.389Z,2.40
2018-05-02T04:50:04.504Z,2.40
2018-05-02T04:51:05.950Z,2.50
2018-05-02T04:52:07.357Z,2.30
2018-05-02T04:53:09.469Z,2.23
2018-05-02T04:54:11.599Z,2.33
2018-05-02T04:55:12.994Z,2.13
2018-05-02T04:56:14.370Z,2.20
2018-05-02T04:57:15.822Z,2.40
2018-05-02T04:58:17.184Z,2.73
2018-05-02T04:59:19.658Z,2.23
2018-05-02T05:00:21.783Z,2.10
2018-05-02T05:01:24.653Z,2.20
2018-05-02T05:02:26.424Z,2.50
2018-05-02T05:03:29.543Z,2.40
2018-05-02T05:04:30.901Z,2.40
2018-05-02T05:05:32.270Z,2.23
2018-05-02T05:06:33.650Z,2.40
2018-05-02T05:07:35.032Z,2.17
2018-05-02T05:08:37.139Z,2.17
2018-05-02T05:09:38.518Z,2.30
2018-05-02T05:10:39.885Z,2.13
2018-05-02T05:11:42.011Z,2.50
2018-05-02T05:12:43.402Z,2.30
2018-05-02T05:13:44.772Z,2.40
2018-05-02T05:14:46.133Z,2.30
2018-05-02T05:15:47.491Z,2.50
2018-05-02T05:16:48.851Z,2.37
2018-05-02T05:17:50.241Z,2.50
2018-05-02T05:18:51.635Z,2.80
2018-05-02T05:19:53.035Z,2.70
2018-05-02T05:20:54.417Z,2.60
2018-05-02T05:21:55.772Z,2.47
2018-05-02T05:22:57.153Z,2.40
2018-05-02T05:23:58.536Z,2.23
2018-05-02T05:24:59.893Z,2.07
2018-05-02T05:26:01.260Z,2.23
2018-05-02T05:27:02.650Z,2.03
2018-05-02T05:28:04.053Z,2.10
2018-05-02T05:29:06.161Z,2.10
2018-05-02T05:30:07.514Z,2.00
2018-05-02T05:31:08.893Z,2.00
2018-05-02T05:32:10.275Z,2.07
2018-05-02T05:33:11.662Z,1.90
2018-05-02T05:34:14.525Z,1.90
2018-05-02T05:35:15.904Z,1.90
2018-05-02T05:36:17.278Z,1.90
2018-05-02T05:37:19.385Z,2.30
2018-05-02T05:38:21.513Z,2.30
2018-05-02T05:39:22.870Z,2.43
2018-05-02T05:40:25.883Z,2.20
2018-05-02T05:41:27.289Z,2.20
2018-05-02T05:42:29.437Z,2.20
2018-05-02T05:43:30.865Z,2.30
2018-05-02T05:44:32.238Z,1.90
2018-05-02T05:45:35.090Z,1.90
2018-05-02T05:46:36.461Z,2.03
2018-05-02T05:47:37.825Z,2.30
2018-05-02T05:48:39.205Z,2.50
2018-05-02T05:49:40.570Z,2.40
2018-05-02T05:50:42.681Z,1.97
2018-05-02T05:51:44.073Z,2.37
2018-05-02T05:52:45.470Z,2.57
2018-05-02T05:53:46.877Z,2.50
2018-05-02T05:54:48.254Z,2.37
2018-05-02T05:55:49.627Z,2.40
2018-05-02T05:56:51.010Z,2.10
2018-05-02T05:57:52.390Z,2.40
2018-05-02T05:58:54.538Z,2.40
2018-05-02T05:59:55.930Z,2.00
2018-05-02T06:00:57.314Z,2.13
2018-05-02T06:01:59.436Z,2.40
2018-05-02T06:03:00.853Z,2.23
2018-05-02T06:04:02.234Z,2.10
2018-05-02T06:05:03.648Z,2.00
2018-05-02T06:06:05.064Z,2.03
2018-05-02T06:07:08.153Z,2.07
2018-05-02T06:08:11.024Z,2.07
2018-05-02T06:09:12.439Z,2.10
2018-05-02T06:10:15.315Z,2.47
2018-05-02T06:11:16.747Z,2.17
2018-05-02T06:12:19.611Z,2.03
2018-05-02T06:13:20.982Z,2.20
2018-05-02T06:14:22.374Z,1.97
2018-05-02T06:15:23.767Z,2.30
2018-05-02T06:16:25.162Z,2.10
2018-05-02T06:17:26.554Z,2.07
2018-05-02T06:18:27.950Z,2.20
2018-05-02T06:19:30.446Z,2.40
2018-05-02T06:20:31.810Z,1.90
2018-05-02T06:21:33.197Z,2.20
2018-05-02T06:22:35.313Z,2.10
2018-05-02T06:23:38.426Z,2.10
2018-05-02T06:24:39.831Z,2.10
2018-05-02T06:25:41.230Z,2.47
2018-05-02T06:26:42.614Z,2.10
2018-05-02T06:27:43.999Z,1.90
2018-05-02T06:28:46.107Z,2.30
2018-05-02T06:29:48.247Z,1.93
2018-05-02T06:30:50.364Z,1.90
2018-05-02T06:31:52.866Z,2.20
2018-05-02T06:32:54.247Z,2.07
2018-05-02T06:33:55.627Z,2.50
2018-05-02T06:34:57.018Z,2.30
2018-05-02T06:35:59.526Z,2.63
2018-05-02T06:37:00.918Z,2.13
2018-05-02T06:38:02.332Z,2.50
2018-05-02T06:39:04.520Z,2.03
2018-05-02T06:40:05.923Z,2.00
2018-05-02T06:41:07.294Z,1.90
2018-05-02T06:42:09.442Z,2.00
2018-05-02T06:43:10.830Z,2.40
2018-05-02T06:44:12.235Z,2.50
2018-05-02T06:45:15.134Z,2.00
2018-05-02T06:46:17.252Z,2.07
2018-05-02T06:47:19.362Z,2.40
2018-05-02T06:48:20.755Z,2.37
2018-05-02T06:49:22.199Z,2.20
2018-05-02T06:50:23.655Z,2.20
2018-05-02T06:51:24.979Z,2.27
2018-05-02T06:52:26.370Z,2.10
2018-05-02T06:53:28.496Z,2.23
2018-05-02T06:54:30.982Z,2.43
2018-05-02T06:55:32.373Z,2.53
2018-05-02T06:56:34.485Z,2.50
2018-05-02T06:57:35.846Z,2.47
2018-05-02T06:58:37.238Z,2.17
2018-05-02T06:59:39.350Z,2.50
2018-05-02T07:00:40.926Z,2.10
2018-05-02T07:01:43.075Z,2.40
2018-05-02T07:02:44.475Z,2.20
2018-05-02T07:03:45.869Z,2.30
2018-05-02T07:04:47.999Z,2.40
2018-05-02T07:05:49.403Z,2.70
2018-05-02T07:06:50.833Z,2.67
2018-05-02T07:07:52.227Z,2.40
2018-05-02T07:08:55.087Z,2.40
2018-05-02T07:09:56.463Z,2.50
2018-05-02T07:10:59.342Z,2.40
2018-05-02T07:12:00.714Z,2.53
2018-05-02T07:13:02.099Z,2.30
2018-05-02T07:14:04.599Z,2.17
2018-05-02T07:15:05.974Z,2.30
2018-05-02T07:16:07.391Z,2.43
2018-05-02T07:17:08.775Z,2.50
2018-05-02T07:18:10.167Z,2.43
2018-05-02T07:19:11.550Z,2.30
2018-05-02T07:20:12.934Z,2.30
2018-05-02T07:21:14.346Z,2.43
2018-05-02T07:22:16.838Z,2.50
2018-05-02T07:23:18.238Z,2.43
2018-05-02T07:24:19.616Z,2.20
2018-05-02T07:25:20.979Z,2.30
2018-05-02T07:26:22.379Z,2.40
2018-05-02T07:27:25.466Z,2.30
2018-05-02T07:28:26.842Z,2.40
2018-05-02T07:29:28.194Z,2.47
2018-05-02T07:30:29.693Z,2.50
2018-05-02T07:31:31.094Z,2.40
2018-05-02T07:32:32.593Z,2.47
2018-05-02T07:33:33.902Z,2.40
2018-05-02T07:34:35.259Z,2.60
2018-05-02T07:35:36.644Z,2.80
2018-05-02T07:36:38.043Z,2.33
2018-05-02T07:37:39.423Z,2.60
2018-05-02T07:38:40.793Z,2.60
2018-05-02T07:39:42.182Z,2.53
2018-05-02T07:40:44.283Z,2.63
2018-05-02T07:41:47.459Z,2.57
2018-05-02T07:42:49.953Z,2.47
2018-05-02T07:43:51.315Z,2.63
2018-05-02T07:44:53.454Z,2.83
2018-05-02T07:45:54.830Z,2.27
2018-05-02T07:46:56.266Z,2.70
2018-05-02T07:47:57.649Z,2.40
2018-05-02T07:48:59.033Z,2.50
2018-05-02T07:50:00.454Z,3.17
2018-05-02T07:51:01.838Z,2.70
2018-05-02T07:52:03.275Z,2.70
2018-05-02T07:53:04.664Z,2.67
2018-05-02T07:54:06.038Z,2.57
2018-05-02T07:55:07.407Z,2.67
2018-05-02T07:56:09.531Z,2.43
2018-05-02T07:57:10.990Z,2.40
2018-05-02T07:58:12.358Z,2.50
2018-05-02T07:59:14.467Z,2.50
2018-05-02T08:00:16.566Z,2.47
2018-05-02T08:01:17.930Z,2.60
2018-05-02T08:02:20.059Z,2.57
2018-05-02T08:03:22.171Z,2.50
2018-05-02T08:04:25.271Z,2.37
2018-05-02T08:05:26.627Z,2.30
2018-05-02T08:06:29.701Z,2.30
2018-05-02T08:07:31.830Z,2.50
2018-05-02T08:08:33.203Z,2.40
2018-05-02T08:09:35.323Z,2.47
2018-05-02T08:10:36.700Z,2.40
2018-05-02T08:11:38.094Z,2.47
2018-05-02T08:12:39.485Z,2.50
2018-05-02T08:13:40.854Z,2.63
2018-05-02T08:14:42.222Z,2.70
2018-05-02T08:15:44.351Z,2.90
2018-05-02T08:16:45.714Z,2.87
2018-05-02T08:17:47.119Z,2.57
2018-05-02T08:18:49.243Z,2.43
2018-05-02T08:19:52.091Z,2.60
2018-05-02T08:20:54.206Z,3.10
2018-05-02T08:21:55.585Z,2.47
2018-05-02T08:22:57.745Z,2.60
2018-05-02T08:23:59.131Z,2.30
2018-05-02T08:25:00.498Z,2.73
2018-05-02T08:26:02.634Z,3.10
2018-05-02T08:27:04.019Z,2.60
2018-05-02T08:28:05.419Z,2.70
2018-05-02T08:29:06.783Z,2.60
2018-05-02T08:30:08.142Z,2.90
2018-05-02T08:31:11.005Z,2.90
2018-05-02T08:32:12.371Z,2.83
2018-05-02T08:33:14.524Z,2.93
2018-05-02T08:34:16.658Z,2.50
2018-05-02T08:35:24.933Z,2.97
2018-05-02T08:36:26.307Z,2.73
2018-05-02T08:37:28.430Z,2.80
2018-05-02T08:38:29.836Z,3.00
2018-05-02T08:39:31.222Z,2.80
2018-05-02T08:40:32.603Z,2.40
2018-05-02T08:41:34.726Z,2.90
2018-05-02T08:42:36.850Z,2.70
2018-05-02T08:43:38.259Z,2.60
2018-05-02T08:44:39.631Z,3.03
2018-05-02T08:45:41.099Z,2.80
2018-05-02T08:46:42.475Z,2.77
2018-05-02T08:47:43.853Z,2.67
2018-05-02T08:48:45.249Z,2.87
2018-05-02T08:49:46.638Z,2.80
2018-05-02T08:50:48.039Z,2.80
2018-05-02T08:51:49.495Z,3.00
2018-05-02T08:52:51.560Z,3.30
2018-05-02T08:53:52.958Z,3.03
2018-05-02T08:54:55.078Z,2.90
2018-05-02T08:55:56.487Z,2.97
2018-05-02T08:56:57.860Z,3.10
2018-05-02T08:57:59.227Z,3.27
2018-05-02T08:59:01.409Z,2.87
2018-05-02T09:00:02.817Z,2.67
2018-05-02T09:01:04.958Z,2.63
2018-05-02T09:02:06.354Z,3.07
2018-05-02T09:03:07.726Z,3.00
2018-05-02T09:04:09.122Z,2.60
2018-05-02T09:05:10.538Z,3.03
2018-05-02T09:06:12.659Z,3.00
2018-05-02T09:07:14.043Z,2.90
2018-05-02T09:08:15.406Z,2.93
2018-05-02T09:09:16.798Z,2.90
2018-05-02T09:10:19.299Z,3.00
2018-05-02T09:11:20.693Z,3.10
2018-05-02T09:12:22.082Z,3.10
2018-05-02T09:13:24.209Z,3.70
2018-05-02T09:14:26.331Z,3.20
2018-05-02T09:15:27.743Z,3.73
2018-05-02T09:16:29.105Z,3.40
2018-05-02T09:17:30.482Z,3.30
2018-05-02T09:18:32.606Z,3.40
2018-05-02T09:19:34.139Z,3.30
2018-05-02T09:20:35.513Z,3.90
2018-05-02T09:21:37.645Z,3.60
2018-05-02T09:22:39.034Z,3.53
2018-05-02T09:23:41.158Z,3.97
2018-05-02T09:24:43.284Z,3.90
2018-05-02T09:25:44.727Z,3.70
2018-05-02T09:26:46.075Z,3.90
2018-05-02T09:27:47.462Z,4.40
2018-05-02T09:28:48.838Z,4.20
2018-05-02T09:29:50.987Z,4.20
2018-05-02T09:30:52.378Z,4.17
2018-05-02T09:31:54.502Z,4.03
2018-05-02T09:32:55.891Z,4.00
2018-05-02T09:33:57.278Z,3.83
2018-05-02T09:34:58.677Z,3.77
2018-05-02T09:36:00.046Z,4.10
2018-05-02T09:37:01.431Z,4.07
2018-05-02T09:38:04.334Z,3.53
2018-05-02T09:39:05.750Z,4.47
2018-05-02T09:40:07.170Z,4.00
2018-05-02T09:41:09.294Z,4.30
2018-05-02T09:42:10.670Z,3.83
2018-05-02T09:43:12.846Z,4.40
2018-05-02T09:44:15.007Z,4.70
2018-05-02T09:45:17.140Z,5.20
2018-05-02T09:46:20.247Z,4.53
2018-05-02T09:47:22.373Z,4.00
2018-05-02T09:48:23.730Z,4.70
2018-05-02T09:49:26.830Z,4.47
2018-05-02T09:50:28.546Z,4.03
2018-05-02T09:51:30.658Z,4.23
2018-05-02T09:52:32.035Z,4.37
2018-05-02T09:53:34.171Z,4.50
2018-05-02T09:54:35.579Z,4.83
2018-05-02T09:55:36.974Z,4.80
2018-05-02T09:56:39.483Z,4.40
2018-05-02T09:57:40.869Z,4.90
2018-05-02T09:58:42.239Z,4.93
2018-05-02T09:59:44.354Z,4.70
2018-05-02T10:00:45.750Z,5.10
2018-05-02T10:01:47.114Z,4.60
2018-05-02T10:02:50.230Z,5.10
2018-05-02T10:03:52.339Z,4.60
2018-05-02T10:04:53.738Z,4.47
2018-05-02T10:05:56.242Z,4.53
2018-05-02T10:06:57.626Z,4.50
2018-05-02T10:08:00.139Z,4.70
2018-05-02T10:09:01.522Z,4.53
2018-05-02T10:10:02.939Z,4.90
2018-05-02T10:11:04.432Z,4.43
2018-05-02T10:12:05.844Z,4.23
2018-05-02T10:13:07.234Z,3.97
2018-05-02T10:14:08.630Z,3.87
2018-05-02T10:15:10.778Z,4.30
2018-05-02T10:16:12.178Z,4.60
2018-05-02T10:17:14.319Z,4.60
2018-05-02T10:18:15.699Z,4.87
2018-05-02T10:19:17.157Z,4.60
2018-05-02T10:20:19.242Z,4.60
2018-05-02T10:21:20.646Z,4.97
2018-05-02T10:22:22.042Z,4.93
2018-05-02T10:23:24.177Z,4.50
2018-05-02T10:24:25.594Z,4.70
2018-05-02T10:25:26.970Z,4.57
2018-05-02T10:26:28.410Z,4.87
2018-05-02T10:27:29.788Z,4.70
2018-05-02T10:28:31.165Z,4.63
2018-05-02T10:29:32.571Z,4.70
2018-05-02T10:30:33.939Z,4.60
2018-05-02T10:31:36.069Z,4.87
2018-05-02T10:32:37.477Z,4.90
2018-05-02T10:33:38.850Z,5.27
2018-05-02T10:34:40.229Z,5.00
2018-05-02T10:35:42.331Z,5.00
2018-05-02T10:36:44.538Z,4.90
2018-05-02T10:37:45.923Z,4.50
2018-05-02T10:38:47.317Z,4.57
2018-05-02T10:39:48.690Z,5.23
2018-05-02T10:40:50.075Z,4.97
2018-05-02T10:41:52.195Z,5.50
2018-05-02T10:42:54.329Z,4.43
2018-05-02T10:43:55.746Z,4.67
2018-05-02T10:44:57.890Z,4.77
2018-05-02T10:46:00.023Z,4.97
2018-05-02T10:47:01.467Z,4.83
2018-05-02T10:48:02.875Z,4.60
2018-05-02T10:49:04.270Z,4.93
2018-05-02T10:50:06.380Z,5.10
2018-05-02T10:51:09.279Z,5.30
2018-05-02T10:52:11.455Z,5.23
2018-05-02T10:53:14.366Z,4.90
2018-05-02T10:54:15.750Z,5.27
2018-05-02T10:55:17.347Z,4.83
2018-05-02T10:56:18.765Z,4.90
2018-05-02T10:57:20.177Z,4.57
2018-05-02T10:58:21.566Z,4.50
2018-05-02T10:59:22.946Z,4.97
2018-05-02T11:00:24.331Z,4.53
2018-05-02T11:01:25.742Z,4.83
2018-05-02T11:02:27.868Z,4.87
2018-05-02T11:03:29.230Z,5.13
2018-05-02T11:04:31.359Z,5.20
2018-05-02T11:05:32.735Z,4.60
2018-05-02T11:06:34.851Z,4.90
2018-05-02T11:07:36.410Z,4.70
2018-05-02T11:08:37.795Z,4.73
2018-05-02T11:09:39.182Z,4.47
2018-05-02T11:10:40.566Z,5.20
2018-05-02T11:11:41.950Z,4.80
2018-05-02T11:12:44.083Z,4.73
2018-05-02T11:13:45.479Z,4.20
2018-05-02T11:14:47.629Z,4.07
2018-05-02T11:15:50.171Z,4.47
2018-05-02T11:16:51.554Z,4.10
2018-05-02T11:17:54.432Z,4.63
2018-05-02T11:18:55.811Z,4.30
2018-05-02T11:19:57.190Z,4.60
2018-05-02T11:20:59.303Z,4.77
2018-05-02T11:22:00.687Z,4.67
2018-05-02T11:23:02.907Z,4.80
2018-05-02T11:24:04.305Z,4.40
2018-05-02T11:25:05.670Z,4.87
2018-05-02T11:26:07.082Z,4.60
2018-05-02T11:27:09.212Z,4.67
2018-05-02T11:28:10.607Z,4.63
2018-05-02T11:29:11.984Z,4.57
2018-05-02T11:30:13.389Z,4.00
2018-05-02T11:31:14.746Z,3.97
2018-05-02T11:32:16.130Z,4.70
2018-05-02T11:33:17.534Z,4.17
2018-05-02T11:34:18.912Z,4.17
2018-05-02T11:35:20.307Z,4.63
2018-05-02T11:36:21.689Z,4.60
2018-05-02T11:37:23.063Z,4.90
2018-05-02T11:38:24.494Z,3.90
2018-05-02T11:39:25.891Z,4.40
2018-05-02T11:40:28.974Z,4.07
2018-05-02T11:41:31.079Z,4.40
2018-05-02T11:42:32.516Z,4.60
2018-05-02T11:43:33.910Z,4.23
2018-05-02T11:44:36.014Z,5.23
2018-05-02T11:45:37.419Z,4.20
2018-05-02T11:46:38.813Z,3.87
2018-05-02T11:47:40.963Z,3.93
2018-05-02T11:48:42.415Z,4.03
2018-05-02T11:49:44.539Z,3.83
2018-05-02T11:50:45.941Z,4.17
2018-05-02T11:51:47.332Z,4.57
2018-05-02T11:52:48.712Z,4.37
2018-05-02T11:53:50.896Z,5.60
2018-05-02T11:54:52.276Z,5.37
2018-05-02T11:55:55.163Z,5.03
2018-05-02T11:56:57.662Z,5.80
2018-05-02T11:57:59.056Z,5.63
2018-05-02T11:59:00.471Z,5.27
2018-05-02T12:00:01.910Z,5.63
2018-05-02T12:01:03.301Z,5.47
2018-05-02T12:02:05.441Z,6.23
2018-05-02T12:03:08.540Z,6.50
2018-05-02T12:04:11.051Z,6.33
2018-05-02T12:05:12.439Z,6.67
2018-05-02T12:06:14.583Z,6.37
2018-05-02T12:07:15.999Z,7.30
2018-05-02T12:08:17.365Z,6.23
2018-05-02T12:09:19.540Z,6.30
2018-05-02T12:10:21.715Z,6.53
2018-05-02T12:11:24.190Z,6.57
2018-05-02T12:12:25.628Z,6.10
2018-05-02T12:13:27.026Z,6.63
2018-05-02T12:14:30.113Z,6.03
2018-05-02T12:15:32.266Z,6.30
2018-05-02T12:16:33.618Z,5.87
2018-05-02T12:17:35.730Z,6.37
2018-05-02T12:18:37.091Z,6.47
2018-05-02T12:19:39.219Z,5.80
2018-05-02T12:20:40.571Z,6.10
2018-05-02T12:21:41.945Z,6.43
2018-05-02T12:22:44.420Z,6.80
2018-05-02T12:23:45.799Z,6.30
2018-05-02T12:24:47.235Z,6.27
2018-05-02T12:25:48.622Z,6.83
2018-05-02T12:26:50.754Z,6.50
2018-05-02T12:27:52.135Z,6.80
2018-05-02T12:28:54.247Z,6.57
2018-05-02T12:29:55.683Z,7.00
2018-05-02T12:30:57.067Z,7.37
2018-05-02T12:31:59.180Z,7.57
2018-05-02T12:33:00.542Z,7.57
2018-05-02T12:34:02.689Z,7.57
2018-05-02T12:35:04.104Z,7.90
2018-05-02T12:36:05.526Z,7.57
2018-05-02T12:37:06.902Z,7.33
2018-05-02T12:38:08.340Z,6.60
2018-05-02T12:39:09.751Z,7.50
2018-05-02T12:40:11.208Z,7.00
2018-05-02T12:41:12.591Z,6.67
2018-05-02T12:42:15.467Z,6.30
2018-05-02T12:43:17.581Z,6.77
2018-05-02T12:44:18.940Z,6.10
2018-05-02T12:45:21.089Z,6.33
2018-05-02T12:46:22.459Z,6.57
2018-05-02T12:47:24.552Z,6.30
2018-05-02T12:48:25.977Z,6.77
2018-05-02T12:49:27.355Z,6.87
2018-05-02T12:50:28.814Z,7.27
2018-05-02T12:51:31.712Z,7.20
2018-05-02T12:52:33.087Z,6.57
2018-05-02T12:53:34.451Z,6.33
2018-05-02T12:54:35.822Z,6.07
2018-05-02T12:55:37.959Z,6.40
2018-05-02T12:56:40.073Z,6.80
2018-05-02T12:57:41.455Z,6.10
2018-05-02T12:58:44.322Z,6.77
2018-05-02T12:59:45.761Z,6.43
2018-05-02T13:00:47.175Z,6.50
2018-05-02T13:01:48.590Z,6.63
2018-05-02T13:02:49.963Z,6.43
2018-05-02T13:03:51.337Z,6.90
2018-05-02T13:04:54.194Z,6.43
2018-05-02T13:05:55.579Z,6.17
2018-05-02T13:06:56.943Z,6.93
2018-05-02T13:07:59.170Z,7.03
2018-05-02T13:09:00.546Z,6.23
2018-05-02T13:10:02.050Z,6.00
2018-05-02T13:11:04.192Z,5.77
2018-05-02T13:12:05.655Z,6.13
2018-05-02T13:13:07.766Z,5.93
2018-05-02T13:14:09.139Z,5.57
2018-05-02T13:15:10.491Z,6.80
2018-05-02T13:16:12.635Z,5.50
2018-05-02T13:17:15.127Z,5.80
2018-05-02T13:18:16.499Z,6.03
2018-05-02T13:19:17.869Z,5.80
2018-05-02T13:20:19.242Z,5.83
2018-05-02T13:21:20.621Z,5.70
2018-05-02T13:22:21.987Z,5.50
2018-05-02T13:23:24.912Z,4.80
2018-05-02T13:24:26.242Z,5.57
2018-05-02T13:25:27.610Z,5.60
2018-05-02T13:26:29.748Z,5.43
2018-05-02T13:27:31.135Z,5.40
2018-05-02T13:28:32.547Z,5.20
2018-05-02T13:29:35.658Z,5.17
2018-05-02T13:30:38.763Z,4.60
2018-05-02T13:31:41.271Z,4.93
2018-05-02T13:32:42.675Z,5.47
2018-05-02T13:33:44.106Z,4.73
2018-05-02T13:34:45.478Z,5.17
2018-05-02T13:35:46.847Z,5.50
2018-05-02T13:36:50.049Z,5.20
2018-05-02T13:37:51.437Z,5.47
2018-05-02T13:38:52.809Z,5.00
2018-05-02T13:39:54.182Z,5.20
2018-05-02T13:40:55.563Z,4.73
2018-05-02T13:41:56.963Z,4.80
2018-05-02T13:42:59.083Z,4.60
2018-05-02T13:44:00.463Z,5.30
2018-05-02T13:45:01.829Z,5.70
2018-05-02T13:46:03.243Z,5.50